DCS642 LFQB-LFRK
Flight info
| Callsign | DCS642 |
|---|---|
| Flight time | 0h 41m |
| Altitude | 26000 |
| Route | TABOV UN491 LGL |
| Aircraft | P180/L-SBDFGM3RWXY/LB1 |
Departure
| Time | 2026-05-06 08:17 |
|---|---|
| Airport | Troyes-Barberey Airport (LFQB) |
Arrival
| Time | 2026-05-06 08:59 |
|---|---|
| Airport | Caen Carpiquet airport (LFRK) |
| Time | Latitude | Longitude | Altitude | Speed | Heading |
|---|---|---|---|---|---|
| 2026-05-06 07:58 | 48.32544 | 4.01987 | 375 ft | 0 kts | 42° |
| 2026-05-06 08:08 | 48.32545 | 4.01988 | 375 ft | 1 kts | 42° |
| 2026-05-06 08:08 | 48.32552 | 4.01990 | 375 ft | 1 kts | 350° |
| 2026-05-06 08:09 | 48.32559 | 4.01981 | 375 ft | 2 kts | 320° |
| 2026-05-06 08:09 | 48.32574 | 4.01962 | 375 ft | 4 kts | 320° |
| 2026-05-06 08:09 | 48.32599 | 4.01928 | 375 ft | 6 kts | 303° |
| 2026-05-06 08:09 | 48.32598 | 4.01859 | 375 ft | 8 kts | 259° |
| 2026-05-06 08:10 | 48.32596 | 4.01849 | 375 ft | 0 kts | 259° |
| 2026-05-06 08:10 | 48.32595 | 4.01842 | 375 ft | 2 kts | 259° |
| 2026-05-06 08:11 | 48.32592 | 4.01807 | 375 ft | 5 kts | 264° |
| 2026-05-06 08:11 | 48.32588 | 4.01748 | 375 ft | 6 kts | 264° |
| 2026-05-06 08:11 | 48.32582 | 4.01675 | 375 ft | 8 kts | 263° |
| 2026-05-06 08:11 | 48.32576 | 4.01624 | 375 ft | 3 kts | 246° |
| 2026-05-06 08:12 | 48.32556 | 4.01606 | 375 ft | 3 kts | 193° |
| 2026-05-06 08:12 | 48.32531 | 4.01605 | 375 ft | 4 kts | 173° |
| 2026-05-06 08:12 | 48.32498 | 4.01611 | 375 ft | 6 kts | 172° |
| 2026-05-06 08:12 | 48.32449 | 4.01621 | 375 ft | 8 kts | 172° |
| 2026-05-06 08:13 | 48.32380 | 4.01634 | 374 ft | 11 kts | 175° |
| 2026-05-06 08:13 | 48.32295 | 4.01645 | 374 ft | 13 kts | 175° |
| 2026-05-06 08:13 | 48.32197 | 4.01658 | 374 ft | 14 kts | 175° |
| 2026-05-06 08:13 | 48.32094 | 4.01673 | 374 ft | 15 kts | 173° |
| 2026-05-06 08:14 | 48.31986 | 4.01693 | 373 ft | 16 kts | 173° |
| 2026-05-06 08:14 | 48.31884 | 4.01708 | 373 ft | 15 kts | 174° |
| 2026-05-06 08:14 | 48.31781 | 4.01730 | 371 ft | 15 kts | 174° |
| 2026-05-06 08:14 | 48.31676 | 4.01753 | 371 ft | 15 kts | 171° |
| 2026-05-06 08:15 | 48.31635 | 4.01749 | 370 ft | 3 kts | 275° |
| 2026-05-06 08:15 | 48.31643 | 4.01744 | 370 ft | 0 kts | 4° |
| 2026-05-06 08:16 | 48.31790 | 4.01723 | 371 ft | 59 kts | 354° |
| 2026-05-06 08:16 | 48.32401 | 4.01623 | 375 ft | 112 kts | 354° |
| 2026-05-06 08:17 | 48.33222 | 4.01501 | 703 ft | 129 kts | 353° |
| 2026-05-06 08:17 | 48.34173 | 4.01336 | 1071 ft | 150 kts | 352° |
| 2026-05-06 08:17 | 48.35290 | 4.01179 | 1653 ft | 166 kts | 353° |
| 2026-05-06 08:17 | 48.36438 | 4.01036 | 2477 ft | 166 kts | 353° |
| 2026-05-06 08:18 | 48.37598 | 4.00855 | 3120 ft | 170 kts | 345° |
| 2026-05-06 08:18 | 48.38442 | 3.99681 | 3791 ft | 175 kts | 293° |
| 2026-05-06 08:18 | 48.38718 | 3.97873 | 4415 ft | 179 kts | 282° |
| 2026-05-06 08:18 | 48.38943 | 3.96033 | 5184 ft | 177 kts | 281° |
| 2026-05-06 08:19 | 48.39155 | 3.94225 | 5951 ft | 176 kts | 280° |
| 2026-05-06 08:19 | 48.39371 | 3.92373 | 6660 ft | 179 kts | 281° |
| 2026-05-06 08:19 | 48.39595 | 3.90519 | 7464 ft | 182 kts | 280° |
| 2026-05-06 08:19 | 48.39824 | 3.88643 | 8286 ft | 183 kts | 280° |
| 2026-05-06 08:20 | 48.40048 | 3.86743 | 9042 ft | 187 kts | 279° |
| 2026-05-06 08:20 | 48.40284 | 3.84793 | 9760 ft | 191 kts | 279° |
| 2026-05-06 08:20 | 48.40519 | 3.82852 | 10380 ft | 192 kts | 279° |
| 2026-05-06 08:20 | 48.40753 | 3.80861 | 10956 ft | 195 kts | 279° |
| 2026-05-06 08:21 | 48.40998 | 3.78843 | 11576 ft | 196 kts | 279° |
| 2026-05-06 08:21 | 48.41235 | 3.76822 | 12167 ft | 197 kts | 278° |
| 2026-05-06 08:21 | 48.41478 | 3.74781 | 12737 ft | 200 kts | 278° |
| 2026-05-06 08:21 | 48.41726 | 3.72708 | 13289 ft | 202 kts | 278° |
| 2026-05-06 08:22 | 48.41972 | 3.70615 | 13815 ft | 204 kts | 278° |
| 2026-05-06 08:22 | 48.42223 | 3.68512 | 14284 ft | 207 kts | 278° |
| 2026-05-06 08:22 | 48.42478 | 3.66345 | 14734 ft | 210 kts | 278° |
| 2026-05-06 08:22 | 48.42737 | 3.64179 | 15250 ft | 208 kts | 277° |
| 2026-05-06 08:23 | 48.42979 | 3.62123 | 15308 ft | 193 kts | 278° |
| 2026-05-06 08:23 | 48.43229 | 3.60030 | 15342 ft | 214 kts | 278° |
| 2026-05-06 08:23 | 48.43480 | 3.57806 | 15727 ft | 216 kts | 278° |
| 2026-05-06 08:23 | 48.43741 | 3.55611 | 16244 ft | 216 kts | 278° |
| 2026-05-06 08:24 | 48.44002 | 3.53387 | 16708 ft | 217 kts | 277° |
| 2026-05-06 08:24 | 48.44265 | 3.51132 | 17154 ft | 219 kts | 277° |
| 2026-05-06 08:24 | 48.44530 | 3.48845 | 17543 ft | 224 kts | 278° |
| 2026-05-06 08:24 | 48.44803 | 3.46532 | 17998 ft | 225 kts | 278° |
| 2026-05-06 08:25 | 48.45072 | 3.44197 | 18389 ft | 227 kts | 279° |
| 2026-05-06 08:25 | 48.45343 | 3.41853 | 18810 ft | 228 kts | 279° |
| 2026-05-06 08:25 | 48.45618 | 3.39493 | 19192 ft | 230 kts | 279° |
| 2026-05-06 08:25 | 48.45894 | 3.37113 | 19573 ft | 231 kts | 278° |
| 2026-05-06 08:26 | 48.46163 | 3.34766 | 19996 ft | 231 kts | 278° |
| 2026-05-06 08:26 | 48.46439 | 3.32370 | 20369 ft | 232 kts | 278° |
| 2026-05-06 08:26 | 48.46716 | 3.29960 | 20720 ft | 235 kts | 278° |
| 2026-05-06 08:26 | 48.46994 | 3.27527 | 21088 ft | 237 kts | 277° |
| 2026-05-06 08:27 | 48.47276 | 3.25084 | 21505 ft | 237 kts | 278° |
| 2026-05-06 08:27 | 48.47555 | 3.22627 | 21949 ft | 238 kts | 276° |
| 2026-05-06 08:27 | 48.47837 | 3.20151 | 22393 ft | 240 kts | 276° |
| 2026-05-06 08:27 | 48.48119 | 3.17671 | 22820 ft | 242 kts | 276° |
| 2026-05-06 08:28 | 48.48399 | 3.15192 | 23220 ft | 244 kts | 277° |
| 2026-05-06 08:28 | 48.48689 | 3.12655 | 23589 ft | 247 kts | 277° |
| 2026-05-06 08:28 | 48.48977 | 3.10096 | 23939 ft | 249 kts | 277° |
| 2026-05-06 08:28 | 48.49268 | 3.07521 | 24293 ft | 250 kts | 276° |
| 2026-05-06 08:29 | 48.49560 | 3.04935 | 24655 ft | 251 kts | 276° |
| 2026-05-06 08:29 | 48.49851 | 3.02329 | 25001 ft | 253 kts | 277° |
| 2026-05-06 08:29 | 48.50153 | 2.99638 | 25250 ft | 261 kts | 280° |
| 2026-05-06 08:29 | 48.50454 | 2.96963 | 25528 ft | 266 kts | 280° |
| 2026-05-06 08:30 | 48.50763 | 2.94204 | 25849 ft | 269 kts | 280° |
| 2026-05-06 08:30 | 48.51080 | 2.91335 | 25861 ft | 285 kts | 280° |
| 2026-05-06 08:30 | 48.51419 | 2.88311 | 25881 ft | 299 kts | 280° |
| 2026-05-06 08:30 | 48.51769 | 2.85144 | 25881 ft | 312 kts | 280° |
| 2026-05-06 08:31 | 48.52131 | 2.81857 | 25863 ft | 324 kts | 280° |
| 2026-05-06 08:31 | 48.52501 | 2.78497 | 25894 ft | 334 kts | 280° |
| 2026-05-06 08:31 | 48.52893 | 2.74954 | 25895 ft | 342 kts | 280° |
| 2026-05-06 08:31 | 48.53284 | 2.71363 | 25884 ft | 350 kts | 280° |
| 2026-05-06 08:32 | 48.53682 | 2.67723 | 25894 ft | 356 kts | 280° |
| 2026-05-06 08:32 | 48.54086 | 2.64023 | 25895 ft | 360 kts | 279° |
| 2026-05-06 08:32 | 48.54491 | 2.60262 | 25894 ft | 365 kts | 280° |
| 2026-05-06 08:32 | 48.54903 | 2.56469 | 25895 ft | 369 kts | 281° |
| 2026-05-06 08:33 | 48.55320 | 2.52622 | 25895 ft | 372 kts | 281° |
| 2026-05-06 08:33 | 48.55736 | 2.48757 | 25893 ft | 375 kts | 281° |
| 2026-05-06 08:33 | 48.56151 | 2.44864 | 25886 ft | 377 kts | 280° |
| 2026-05-06 08:33 | 48.56570 | 2.40937 | 25892 ft | 379 kts | 281° |
| 2026-05-06 08:34 | 48.56988 | 2.37051 | 25893 ft | 381 kts | 280° |
| 2026-05-06 08:34 | 48.57834 | 2.29015 | 25889 ft | 384 kts | 280° |
| 2026-05-06 08:34 | 48.58259 | 2.25028 | 25894 ft | 385 kts | 281° |
| 2026-05-06 08:35 | 48.58671 | 2.21079 | 25889 ft | 387 kts | 280° |
| 2026-05-06 08:35 | 48.59093 | 2.17041 | 25892 ft | 387 kts | 280° |
| 2026-05-06 08:35 | 48.59516 | 2.12991 | 25887 ft | 387 kts | 280° |
| 2026-05-06 08:35 | 48.59934 | 2.08977 | 25888 ft | 386 kts | 280° |
| 2026-05-06 08:36 | 48.60342 | 2.05021 | 25909 ft | 386 kts | 280° |
| 2026-05-06 08:36 | 48.60756 | 2.01014 | 25898 ft | 386 kts | 280° |
| 2026-05-06 08:36 | 48.61168 | 1.97005 | 25907 ft | 386 kts | 280° |
| 2026-05-06 08:36 | 48.61576 | 1.92998 | 25898 ft | 386 kts | 281° |
| 2026-05-06 08:37 | 48.61989 | 1.88986 | 25911 ft | 386 kts | 280° |
| 2026-05-06 08:37 | 48.62399 | 1.84975 | 25900 ft | 386 kts | 280° |
| 2026-05-06 08:37 | 48.62804 | 1.80960 | 25902 ft | 387 kts | 280° |
| 2026-05-06 08:37 | 48.63207 | 1.76940 | 25903 ft | 387 kts | 280° |
| 2026-05-06 08:38 | 48.63612 | 1.72914 | 25896 ft | 387 kts | 280° |
| 2026-05-06 08:38 | 48.64012 | 1.68950 | 25885 ft | 386 kts | 281° |
| 2026-05-06 08:38 | 48.64419 | 1.64947 | 25897 ft | 385 kts | 281° |
| 2026-05-06 08:38 | 48.64983 | 1.61006 | 25895 ft | 383 kts | 284° |
| 2026-05-06 08:39 | 48.65518 | 1.57060 | 25896 ft | 383 kts | 282° |
| 2026-05-06 08:39 | 48.65990 | 1.53101 | 25901 ft | 381 kts | 282° |
| 2026-05-06 08:39 | 48.66508 | 1.49205 | 25796 ft | 377 kts | 284° |
| 2026-05-06 08:39 | 48.67074 | 1.45299 | 25339 ft | 383 kts | 284° |
| 2026-05-06 08:40 | 48.67618 | 1.41319 | 24832 ft | 389 kts | 283° |
| 2026-05-06 08:40 | 48.68124 | 1.37270 | 24320 ft | 393 kts | 282° |
| 2026-05-06 08:40 | 48.68659 | 1.33203 | 23801 ft | 395 kts | 283° |
| 2026-05-06 08:40 | 48.69226 | 1.29129 | 23243 ft | 396 kts | 283° |
| 2026-05-06 08:41 | 48.69759 | 1.25112 | 22722 ft | 393 kts | 282° |
| 2026-05-06 08:41 | 48.70276 | 1.21069 | 22210 ft | 390 kts | 282° |
| 2026-05-06 08:41 | 48.70802 | 1.17055 | 21698 ft | 387 kts | 283° |
| 2026-05-06 08:41 | 48.71338 | 1.13077 | 21189 ft | 384 kts | 283° |
| 2026-05-06 08:42 | 48.71856 | 1.09124 | 20684 ft | 381 kts | 283° |
| 2026-05-06 08:42 | 48.72357 | 1.05198 | 20184 ft | 379 kts | 283° |
| 2026-05-06 08:42 | 48.72870 | 1.01299 | 19688 ft | 376 kts | 282° |
| 2026-05-06 08:42 | 48.73209 | 0.98734 | 19359 ft | 374 kts | 283° |
| 2026-05-06 08:43 | 48.73703 | 0.94879 | 18872 ft | 372 kts | 282° |
| 2026-05-06 08:43 | 48.74360 | 0.89805 | 18219 ft | 370 kts | 282° |
| 2026-05-06 08:43 | 48.74847 | 0.85995 | 17703 ft | 367 kts | 283° |
| 2026-05-06 08:43 | 48.75333 | 0.82228 | 17222 ft | 362 kts | 283° |
| 2026-05-06 08:44 | 48.75823 | 0.78498 | 16742 ft | 360 kts | 283° |
| 2026-05-06 08:44 | 48.76136 | 0.76037 | 16427 ft | 358 kts | 283° |
| 2026-05-06 08:44 | 48.76605 | 0.72342 | 15956 ft | 356 kts | 283° |
| 2026-05-06 08:44 | 48.77074 | 0.68681 | 15493 ft | 353 kts | 283° |
| 2026-05-06 08:45 | 48.77540 | 0.65041 | 15032 ft | 350 kts | 283° |
| 2026-05-06 08:45 | 48.78000 | 0.61428 | 14572 ft | 348 kts | 283° |
| 2026-05-06 08:45 | 48.78598 | 0.56684 | 13968 ft | 344 kts | 283° |
| 2026-05-06 08:45 | 48.78905 | 0.54287 | 13653 ft | 342 kts | 284° |
| 2026-05-06 08:46 | 48.79743 | 0.51040 | 13185 ft | 334 kts | 303° |
| 2026-05-06 08:46 | 48.80995 | 0.48048 | 12749 ft | 329 kts | 302° |
| 2026-05-06 08:46 | 48.82064 | 0.44998 | 12319 ft | 325 kts | 298° |
| 2026-05-06 08:46 | 48.83075 | 0.42000 | 11893 ft | 321 kts | 300° |
| 2026-05-06 08:47 | 48.84187 | 0.39111 | 11479 ft | 312 kts | 303° |
| 2026-05-06 08:47 | 48.85268 | 0.36333 | 11075 ft | 300 kts | 301° |
| 2026-05-06 08:47 | 48.86265 | 0.33515 | 10677 ft | 291 kts | 299° |
| 2026-05-06 08:47 | 48.87213 | 0.30853 | 10300 ft | 283 kts | 301° |
| 2026-05-06 08:48 | 48.88193 | 0.28291 | 9934 ft | 278 kts | 301° |
| 2026-05-06 08:48 | 48.89138 | 0.25759 | 9548 ft | 274 kts | 299° |
| 2026-05-06 08:48 | 48.90016 | 0.23255 | 9187 ft | 270 kts | 299° |
| 2026-05-06 08:48 | 48.90920 | 0.20779 | 8833 ft | 266 kts | 302° |
| 2026-05-06 08:49 | 48.91832 | 0.18355 | 8487 ft | 263 kts | 302° |
| 2026-05-06 08:49 | 48.92705 | 0.15958 | 8206 ft | 257 kts | 301° |
| 2026-05-06 08:49 | 48.93559 | 0.13585 | 7882 ft | 255 kts | 301° |
| 2026-05-06 08:49 | 48.94418 | 0.11236 | 7548 ft | 254 kts | 302° |
| 2026-05-06 08:50 | 48.95278 | 0.08923 | 7334 ft | 248 kts | 302° |
| 2026-05-06 08:50 | 48.96130 | 0.06663 | 7151 ft | 243 kts | 302° |
| 2026-05-06 08:50 | 48.96905 | 0.04456 | 6888 ft | 242 kts | 301° |
| 2026-05-06 08:50 | 48.97705 | 0.02183 | 6315 ft | 242 kts | 303° |
| 2026-05-06 08:51 | 48.98505 | 0.00000 | 5937 ft | 230 kts | 303° |
| 2026-05-06 08:51 | 48.99268 | -0.02087 | 5618 ft | 222 kts | 303° |
| 2026-05-06 08:51 | 49.00003 | -0.04115 | 5334 ft | 216 kts | 303° |
| 2026-05-06 08:51 | 49.00721 | -0.06102 | 5053 ft | 212 kts | 303° |
| 2026-05-06 08:52 | 49.01423 | -0.08046 | 4776 ft | 207 kts | 303° |
| 2026-05-06 08:52 | 49.02121 | -0.09960 | 4495 ft | 208 kts | 303° |
| 2026-05-06 08:52 | 49.02820 | -0.11894 | 4229 ft | 209 kts | 303° |
| 2026-05-06 08:52 | 49.03513 | -0.13815 | 3958 ft | 210 kts | 303° |
| 2026-05-06 08:53 | 49.04214 | -0.15767 | 3681 ft | 210 kts | 302° |
| 2026-05-06 08:53 | 49.04782 | -0.17834 | 3445 ft | 209 kts | 298° |
| 2026-05-06 08:53 | 49.05554 | -0.19667 | 3292 ft | 205 kts | 311° |
| 2026-05-06 08:53 | 49.06387 | -0.21429 | 3138 ft | 203 kts | 309° |
| 2026-05-06 08:54 | 49.07175 | -0.23143 | 3021 ft | 190 kts | 309° |
| 2026-05-06 08:54 | 49.07919 | -0.24752 | 3018 ft | 185 kts | 310° |
| 2026-05-06 08:54 | 49.08647 | -0.26317 | 3008 ft | 180 kts | 310° |
| 2026-05-06 08:54 | 49.09343 | -0.27831 | 2921 ft | 167 kts | 310° |
| 2026-05-06 08:55 | 49.09982 | -0.29199 | 2709 ft | 154 kts | 311° |
| 2026-05-06 08:55 | 49.10582 | -0.30476 | 2507 ft | 143 kts | 310° |
| 2026-05-06 08:55 | 49.11141 | -0.31685 | 2315 ft | 137 kts | 311° |
| 2026-05-06 08:55 | 49.11684 | -0.32857 | 2130 ft | 134 kts | 310° |
| 2026-05-06 08:56 | 49.12221 | -0.34000 | 1953 ft | 132 kts | 311° |
| 2026-05-06 08:56 | 49.12751 | -0.35140 | 1774 ft | 131 kts | 310° |
| 2026-05-06 08:56 | 49.13276 | -0.36270 | 1588 ft | 130 kts | 311° |
| 2026-05-06 08:56 | 49.13787 | -0.37377 | 1414 ft | 129 kts | 311° |
| 2026-05-06 08:57 | 49.14300 | -0.38477 | 1235 ft | 126 kts | 311° |
| 2026-05-06 08:57 | 49.14817 | -0.39562 | 1056 ft | 127 kts | 309° |
| 2026-05-06 08:57 | 49.15325 | -0.40674 | 881 ft | 129 kts | 308° |
| 2026-05-06 08:57 | 49.15840 | -0.41795 | 704 ft | 129 kts | 309° |
| 2026-05-06 08:58 | 49.16352 | -0.42920 | 507 ft | 127 kts | 310° |
| 2026-05-06 08:58 | 49.16857 | -0.43979 | 350 ft | 119 kts | 310° |
| 2026-05-06 08:58 | 49.17323 | -0.44988 | 253 ft | 112 kts | 310° |
| 2026-05-06 08:58 | 49.17699 | -0.45792 | 244 ft | 64 kts | 306° |
| 2026-05-06 08:59 | 49.17853 | -0.46118 | 242 ft | 21 kts | 306° |
| 2026-05-06 08:59 | 49.17916 | -0.46257 | 243 ft | 11 kts | 314° |
| 2026-05-06 08:59 | 49.17994 | -0.46241 | 242 ft | 13 kts | 33° |
| 2026-05-06 08:59 | 49.18069 | -0.46156 | 242 ft | 14 kts | 36° |
| 2026-05-06 09:00 | 49.18151 | -0.46066 | 242 ft | 15 kts | 35° |
| 2026-05-06 09:00 | 49.18224 | -0.45951 | 242 ft | 16 kts | 90° |
| 2026-05-06 09:00 | 49.18214 | -0.45797 | 243 ft | 10 kts | 115° |
| 2026-05-06 09:00 | 49.18196 | -0.45755 | 243 ft | 0 kts | 126° |